Time;durP1;ratioP1;P1;durP2;ratioP2;P2;SDS_P1;SDS_P2;PMS_P1;PMS_P2;Temp;Humidity;BMP_temperature;BMP_pressure;BME280_temperature;BME280_humidity;BME280_pressure;Samples;Min_cycle;Max_cycle;Signal;HPM_P1;HPM_P2
2021/01/01 00:00:47;;;;;;;24.53;9.57;;;5.20;82.30;;;;;;5082208;28;20053;-61
2021/01/01 00:03:13;;;;;;;8.57;6.18;;;5.20;82.20;;;;;;5077892;28;20064;-61
2021/01/01 00:05:40;;;;;;;40.92;21.83;;;5.20;82.10;;;;;;5078006;28;20059;-62
2021/01/01 00:08:06;;;;;;;79.78;36.00;;;5.20;82.10;;;;;;5086400;28;20408;-62
2021/01/01 00:10:33;;;;;;;13.25;9.25;;;5.20;82.10;;;;;;5089240;28;20020;-62
2021/01/01 00:12:58;;;;;;;71.97;27.85;;;5.20;82.20;;;;;;5086024;28;20036;-60
2021/01/01 00:15:24;;;;;;;41.63;20.13;;;5.20;82.30;;;;;;5078926;28;20073;-69
2021/01/01 00:17:50;;;;;;;106.30;43.42;;;5.20;82.30;;;;;;5076124;28;20031;-60
2021/01/01 00:20:16;;;;;;;75.15;36.83;;;5.20;82.30;;;;;;5076778;28;20068;-60
2021/01/01 00:22:42;;;;;;;29.02;16.17;;;5.20;82.30;;;;;;5080654;28;20032;-61
2021/01/01 00:25:09;;;;;;;39.00;22.17;;;5.20;82.30;;;;;;5071706;28;20046;-60
2021/01/01 00:27:34;;;;;;;52.67;24.58;;;5.20;82.50;;;;;;5076627;28;20035;-60
2021/01/01 00:30:00;;;;;;;59.65;26.55;;;5.20;82.50;;;;;;5076284;28;20016;-61
2021/01/01 00:32:26;;;;;;;52.85;25.95;;;5.20;82.60;;;;;;5075598;28;20468;-61
2021/01/01 00:34:52;;;;;;;123.63;53.33;;;5.20;82.60;;;;;;5073712;28;20436;-60
2021/01/01 00:37:17;;;;;;;88.95;37.70;;;5.20;82.70;;;;;;5079925;28;20415;-59
2021/01/01 00:39:43;;;;;;;27.90;15.23;;;5.20;82.60;;;;;;5088451;28;20075;-61
2021/01/01 00:42:09;;;;;;;27.08;14.77;;;5.30;82.60;;;;;;5090005;28;20052;-61
2021/01/01 00:44:34;;;;;;;16.27;8.23;;;5.30;82.50;;;;;;5090727;28;20028;-60
2021/01/01 00:47:02;;;;;;;37.85;18.30;;;5.30;82.50;;;;;;5088862;28;20039;-60
2021/01/01 00:49:27;;;;;;;30.48;13.27;;;5.30;82.40;;;;;;5090378;28;20077;-61
2021/01/01 00:51:53;;;;;;;38.42;18.45;;;5.30;82.40;;;;;;5090710;28;20032;-61
2021/01/01 00:54:18;;;;;;;48.65;22.42;;;5.40;82.50;;;;;;5090564;28;20039;-61
2021/01/01 00:56:44;;;;;;;34.47;16.48;;;5.30;82.40;;;;;;5090215;28;20131;-61
2021/01/01 00:59:10;;;;;;;43.70;13.05;;;5.40;82.40;;;;;;5090544;28;20536;-61
2021/01/01 01:01:35;;;;;;;38.83;19.33;;;5.40;82.40;;;;;;5090867;28;20016;-61
2021/01/01 01:04:01;;;;;;;19.35;9.55;;;5.40;82.30;;;;;;5090188;28;20136;-62
2021/01/01 01:06:27;;;;;;;48.35;23.08;;;5.40;82.40;;;;;;5090746;28;20024;-62
2021/01/01 01:08:54;;;;;;;23.52;10.40;;;5.40;82.40;;;;;;5083036;28;20032;-62
2021/01/01 01:11:28;;;;;;;19.65;11.73;;;5.40;82.30;;;;;;5076936;28;20031;-62
2021/01/01 01:13:54;;;;;;;;;;;5.50;82.30;;;;;;5086338;28;20044;-60
2021/01/01 01:16:24;;;;;;;33.08;15.57;;;5.40;82.20;;;;;;5080146;28;19908;-59
2021/01/01 01:18:50;;;;;;;19.95;10.82;;;5.50;82.20;;;;;;5076603;28;20523;-59
2021/01/01 01:21:16;;;;;;;21.42;11.38;;;5.40;82.30;;;;;;5078759;28;20031;-60
2021/01/01 01:23:42;;;;;;;23.65;12.18;;;5.40;82.50;;;;;;5079232;28;20112;-60
2021/01/01 01:26:08;;;;;;;18.63;9.25;;;5.40;82.60;;;;;;5076291;28;20479;-60
2021/01/01 01:28:33;;;;;;;34.22;14.25;;;5.40;82.70;;;;;;5084741;28;20116;-59
2021/01/01 01:31:00;;;;;;;21.42;10.75;;;5.40;82.90;;;;;;5080550;28;20432;-60
2021/01/01 01:33:26;;;;;;;29.05;16.20;;;5.40;82.90;;;;;;5088438;28;20063;-61
2021/01/01 01:35:52;;;;;;;15.00;7.72;;;5.40;83.00;;;;;;5095587;28;20048;-62
2021/01/01 01:38:18;;;;;;;24.35;10.60;;;5.40;83.00;;;;;;5094976;28;20388;-59
2021/01/01 01:40:43;;;;;;;11.10;7.25;;;5.40;83.00;;;;;;5095910;28;20558;-59
2021/01/01 01:43:09;;;;;;;26.10;12.13;;;5.40;83.10;;;;;;5095436;28;20087;-59
2021/01/01 01:45:35;;;;;;;13.77;8.48;;;5.40;83.00;;;;;;5094966;28;20114;-59
2021/01/01 01:48:03;;;;;;;29.42;14.40;;;5.40;83.00;;;;;;5095822;28;20043;-60
2021/01/01 01:50:30;;;;;;;22.50;12.95;;;5.40;83.00;;;;;;5095442;28;20032;-60
2021/01/01 01:52:56;;;;;;;29.80;14.98;;;5.40;83.00;;;;;;5094600;28;20044;-60
2021/01/01 01:55:22;;;;;;;30.30;12.82;;;5.40;83.10;;;;;;5095289;28;20040;-60
2021/01/01 01:57:48;;;;;;;12.85;6.20;;;5.40;83.10;;;;;;5095614;28;20081;-59
2021/01/01 02:00:38;;;;;;;28.90;14.55;;;5.40;83.20;;;;;;5094383;28;20032;-59
2021/01/01 02:03:03;;;;;;;34.67;11.07;;;5.40;83.30;;;;;;5095625;28;20486;-60
2021/01/01 02:05:29;;;;;;;27.92;12.35;;;5.40;83.40;;;;;;5095222;28;20028;-59
2021/01/01 02:07:55;;;;;;;37.90;14.98;;;5.40;83.50;;;;;;5094761;28;20423;-59
2021/01/01 02:10:21;;;;;;;24.48;11.05;;;5.40;83.60;;;;;;5094926;28;20452;-59
2021/01/01 02:12:48;;;;;;;13.93;9.82;;;5.30;83.60;;;;;;5095248;28;20031;-60
2021/01/01 02:15:14;;;;;;;28.02;12.85;;;5.40;83.70;;;;;;5094122;28;20056;-59
2021/01/01 02:17:40;;;;;;;14.10;9.10;;;5.30;83.70;;;;;;5095010;28;20116;-59
2021/01/01 02:20:07;;;;;;;18.70;10.65;;;5.30;83.80;;;;;;5094600;28;20064;-59
2021/01/01 02:22:35;;;;;;;21.35;10.25;;;5.30;83.90;;;;;;5094528;28;20039;-59
2021/01/01 02:25:00;;;;;;;30.60;16.38;;;5.30;83.90;;;;;;5095181;28;20097;-60
2021/01/01 02:27:27;;;;;;;27.65;12.10;;;5.30;84.00;;;;;;5094018;28;20089;-60
2021/01/01 02:29:52;;;;;;;30.77;14.43;;;5.30;84.10;;;;;;5094879;28;20039;-60
2021/01/01 02:32:18;;;;;;;21.70;10.68;;;5.30;84.20;;;;;;5094512;28;20032;-60
2021/01/01 02:34:43;;;;;;;18.55;9.40;;;5.30;84.30;;;;;;5092634;28;20036;-60
2021/01/01 02:37:09;;;;;;;21.65;9.32;;;5.30;84.30;;;;;;5094883;28;20031;-59
2021/01/01 02:39:37;;;;;;;16.13;7.50;;;5.30;84.30;;;;;;5094183;28;20138;-59
2021/01/01 02:42:04;;;;;;;23.48;9.10;;;5.30;84.30;;;;;;5093924;28;20106;-60
2021/01/01 02:44:30;;;;;;;12.93;6.28;;;5.30;84.90;;;;;;5094242;28;20088;-59
2021/01/01 02:47:03;;;;;;;20.05;7.15;;;5.30;84.30;;;;;;5094409;28;20032;-60
2021/01/01 02:49:30;;;;;;;30.58;15.70;;;5.40;84.30;;;;;;5093945;28;20036;-60
2021/01/01 02:51:56;;;;;;;16.90;8.15;;;5.40;84.20;;;;;;5087286;28;20063;-59
2021/01/01 02:54:22;;;;;;;17.95;8.90;;;5.40;84.10;;;;;;5087096;28;20123;-60
2021/01/01 02:56:47;;;;;;;17.10;9.15;;;5.40;84.00;;;;;;5093452;28;20123;-59
2021/01/01 02:59:13;;;;;;;32.13;11.40;;;5.50;84.00;;;;;;5094201;28;20128;-60
2021/01/01 03:01:39;;;;;;;11.27;6.10;;;5.40;83.80;;;;;;5093886;28;20044;-59
2021/01/01 03:04:05;;;;;;;17.15;8.93;;;5.50;83.80;;;;;;5093625;28;20036;-60
2021/01/01 03:06:30;;;;;;;18.33;7.50;;;5.50;83.60;;;;;;5094094;28;20111;-59
2021/01/01 03:08:56;;;;;;;17.92;9.90;;;5.50;83.60;;;;;;5094310;28;20024;-59
2021/01/01 03:11:22;;;;;;;18.98;7.40;;;5.50;83.50;;;;;;5093378;28;20387;-59
2021/01/01 03:13:48;;;;;;;13.80;4.57;;;5.50;83.30;;;;;;5093776;28;20032;-59
2021/01/01 03:16:13;;;;;;;12.82;6.93;;;5.50;83.30;;;;;;5093730;28;20484;-59
2021/01/01 03:18:39;;;;;;;6.78;4.68;;;5.40;83.30;;;;;;5093115;28;20507;-59
2021/01/01 03:21:05;;;;;;;15.07;7.72;;;5.40;83.30;;;;;;5093677;28;20479;-60
2021/01/01 03:23:31;;;;;;;24.90;9.63;;;5.40;83.20;;;;;;5093659;28;20020;-60
2021/01/01 03:25:56;;;;;;;6.22;4.60;;;5.50;83.90;;;;;;5093148;28;20039;-59
2021/01/01 03:28:22;;;;;;;6.38;3.53;;;5.50;83.20;;;;;;5093701;28;20039;-59
2021/01/01 03:30:47;;;;;;;12.95;6.80;;;5.40;83.10;;;;;;5081712;28;20475;-59
2021/01/01 03:33:13;;;;;;;10.77;5.70;;;5.40;83.00;;;;;;5092393;28;20035;-60
2021/01/01 03:35:39;;;;;;;11.45;6.78;;;5.40;83.00;;;;;;5093286;28;20371;-60
2021/01/01 03:38:08;;;;;;;19.38;8.65;;;5.40;83.00;;;;;;5092672;28;20035;-60
2021/01/01 03:40:33;;;;;;;21.23;9.57;;;5.40;83.00;;;;;;5093298;28;20077;-60
2021/01/01 03:42:59;;;;;;;21.27;10.52;;;5.40;82.90;;;;;;5093484;28;20024;-60
2021/01/01 03:45:25;;;;;;;8.15;4.25;;;5.40;82.90;;;;;;5092371;28;20428;-60
2021/01/01 03:47:51;;;;;;;18.35;6.82;;;5.40;82.90;;;;;;5093371;28;20073;-60
2021/01/01 03:50:17;;;;;;;6.82;4.60;;;5.30;82.90;;;;;;5092402;28;20429;-59
2021/01/01 03:52:42;;;;;;;23.30;11.10;;;5.40;82.90;;;;;;5092627;28;20081;-59
2021/01/01 03:55:08;;;;;;;10.98;4.65;;;5.30;82.70;;;;;;5092968;28;20051;-60
2021/01/01 03:57:34;;;;;;;11.63;5.18;;;5.30;82.70;;;;;;5093135;28;20099;-59
2021/01/01 04:00:04;;;;;;;22.98;10.50;;;5.30;82.70;;;;;;5092345;28;20127;-60
2021/01/01 04:02:37;;;;;;;19.15;9.02;;;5.30;82.80;;;;;;5093188;28;20020;-59
2021/01/01 04:05:03;;;;;;;26.08;11.45;;;5.30;82.70;;;;;;5092910;28;20040;-59
2021/01/01 04:07:29;;;;;;;29.63;11.55;;;5.40;82.80;;;;;;5092042;28;20020;-59
2021/01/01 04:09:54;;;;;;;29.73;12.65;;;5.30;82.70;;;;;;5092998;28;20047;-59
2021/01/01 04:12:20;;;;;;;27.40;11.93;;;5.30;82.70;;;;;;5092695;28;20027;-59
2021/01/01 04:14:46;;;;;;;29.88;11.32;;;5.30;82.70;;;;;;5092117;28;20059;-59
2021/01/01 04:17:11;;;;;;;20.67;8.82;;;5.40;82.70;;;;;;5092708;28;20391;-59
2021/01/01 04:19:37;;;;;;;9.73;4.13;;;5.40;82.60;;;;;;5092787;28;20043;-60
2021/01/01 04:22:02;;;;;;;15.18;6.00;;;5.40;82.50;;;;;;5092290;28;20059;-59
2021/01/01 04:24:28;;;;;;;18.33;7.95;;;5.30;82.40;;;;;;5092709;28;20028;-60
2021/01/01 04:26:54;;;;;;;3.90;3.08;;;5.30;82.30;;;;;;5092822;28;20417;-59
2021/01/01 04:29:19;;;;;;;12.57;6.47;;;5.30;82.30;;;;;;5091822;28;20039;-59
2021/01/01 04:31:45;;;;;;;30.80;6.43;;;5.30;82.20;;;;;;5092928;28;20106;-59
2021/01/01 04:34:11;;;;;;;16.10;7.55;;;5.30;82.20;;;;;;5092078;28;20024;-59
2021/01/01 04:36:37;;;;;;;23.10;8.43;;;5.30;82.20;;;;;;5092790;28;20020;-59
2021/01/01 04:39:04;;;;;;;14.45;5.38;;;5.30;82.20;;;;;;5092613;28;20396;-59
2021/01/01 04:41:30;;;;;;;15.45;7.78;;;5.20;82.30;;;;;;5091759;28;20031;-59
2021/01/01 04:43:57;;;;;;;39.05;7.95;;;5.20;82.30;;;;;;5092782;28;20046;-59
2021/01/01 04:46:23;;;;;;;21.15;9.60;;;5.20;82.20;;;;;;5092323;28;20032;-59
2021/01/01 04:48:49;;;;;;;24.50;11.00;;;5.30;82.30;;;;;;5091925;28;20035;-59
2021/01/01 04:51:15;;;;;;;26.25;10.32;;;5.20;82.20;;;;;;5092666;28;20036;-59
2021/01/01 04:53:41;;;;;;;27.42;9.45;;;5.20;82.20;;;;;;5092419;28;20099;-59
2021/01/01 04:56:08;;;;;;;19.40;8.70;;;5.20;82.10;;;;;;5091629;28;20150;-59
2021/01/01 04:58:35;;;;;;;29.00;12.48;;;5.20;82.10;;;;;;5092182;28;20028;-59
2021/01/01 05:01:02;;;;;;;15.93;7.78;;;5.20;82.00;;;;;;5093517;28;20063;-59
2021/01/01 05:03:28;;;;;;;9.45;5.70;;;5.30;82.10;;;;;;5095635;28;20790;-59
2021/01/01 05:05:54;;;;;;;21.70;9.75;;;5.20;81.90;;;;;;5096613;28;20047;-60
2021/01/01 05:08:21;;;;;;;5.75;3.70;;;5.20;81.90;;;;;;5096304;28;20024;-59
2021/01/01 05:10:47;;;;;;;7.65;5.32;;;5.20;81.80;;;;;;5095661;28;20059;-59
2021/01/01 05:13:20;;;;;;;12.82;6.75;;;5.20;81.80;;;;;;5096424;28;20093;-59
2021/01/01 05:15:47;;;;;;;21.40;10.70;;;5.10;81.90;;;;;;5096185;28;20451;-60
2021/01/01 05:18:25;;;;;;;21.45;9.45;;;5.10;82.00;;;;;;5095612;28;20058;-59
2021/01/01 05:20:55;;;;;;;14.00;6.43;;;5.10;82.00;;;;;;5096007;28;20107;-59
2021/01/01 05:23:23;;;;;;;25.95;10.52;;;5.20;82.10;;;;;;5095401;28;20043;-59
2021/01/01 05:26:16;;;;;;;18.15;7.97;;;5.20;82.10;;;;;;5095864;28;20495;-59
2021/01/01 05:28:48;;;;;;;21.40;10.83;;;5.20;82.10;;;;;;5096027;28;20032;-60
2021/01/01 05:31:25;;;;;;;19.33;9.23;;;5.20;82.00;;;;;;5095279;28;20285;-59
2021/01/01 05:33:52;;;;;;;20.75;10.68;;;5.20;82.00;;;;;;5095684;28;20471;-59
2021/01/01 05:36:32;;;;;;;23.38;10.10;;;5.20;82.00;;;;;;5095968;28;20032;-59
2021/01/01 05:38:59;;;;;;;24.92;12.45;;;5.20;81.90;;;;;;5094922;28;20391;-59
2021/01/01 05:41:36;;;;;;;24.42;11.15;;;5.20;81.90;;;;;;5095656;28;20032;-59
2021/01/01 05:44:18;;;;;;;12.00;5.88;;;5.20;81.90;;;;;;5095610;28;20039;-59
2021/01/01 05:46:52;;;;;;;21.95;6.78;;;5.10;81.80;;;;;;5094864;28;20487;-59
2021/01/01 05:49:19;;;;;;;17.63;7.82;;;5.10;81.80;;;;;;5095730;28;20032;-59
2021/01/01 05:51:45;;;;;;;7.53;4.40;;;5.10;81.80;;;;;;5094650;28;20032;-59
2021/01/01 05:54:11;;;;;;;16.98;8.60;;;5.10;81.80;;;;;;5095557;28;20036;-60
2021/01/01 05:56:40;;;;;;;21.35;9.50;;;5.10;81.80;;;;;;5094766;28;20491;-59
2021/01/01 05:59:12;;;;;;;21.38;10.25;;;5.10;81.80;;;;;;5094937;28;20039;-59
2021/01/01 06:01:40;;;;;;;23.05;10.32;;;5.10;81.90;;;;;;5095309;28;20020;-59
2021/01/01 06:04:06;;;;;;;18.60;8.85;;;5.10;81.90;;;;;;5095550;28;20024;-59
2021/01/01 06:06:33;;;;;;;27.38;12.15;;;5.10;81.90;;;;;;5094691;28;20027;-59
2021/01/01 06:09:06;;;;;;;20.00;9.73;;;5.10;81.80;;;;;;5094945;28;20501;-59
2021/01/01 06:11:37;;;;;;;20.63;10.90;;;5.10;81.80;;;;;;5095139;28;20501;-59
2021/01/01 06:14:05;;;;;;;27.70;12.40;;;5.10;81.80;;;;;;5093521;28;20028;-59
2021/01/01 06:16:43;;;;;;;21.15;9.38;;;5.10;81.70;;;;;;5095237;28;20105;-59
2021/01/01 06:19:12;;;;;;;19.80;9.95;;;5.10;81.80;;;;;;5094861;28;20044;-59
2021/01/01 06:21:43;;;;;;;21.35;10.57;;;5.10;81.80;;;;;;5094309;28;20033;-59
2021/01/01 06:24:19;;;;;;;26.33;11.68;;;5.10;81.70;;;;;;5095017;28;20024;-59
2021/01/01 06:26:45;;;;;;;16.05;8.60;;;5.10;81.70;;;;;;5094225;28;20542;-59
2021/01/01 06:29:17;;;;;;;27.20;10.48;;;5.10;81.60;;;;;;5094744;28;20020;-59
2021/01/01 06:31:47;;;;;;;8.70;4.28;;;5.00;81.60;;;;;;5094831;28;20130;-59
2021/01/01 06:34:23;;;;;;;24.42;9.68;;;5.00;81.50;;;;;;5093803;28;20012;-59
2021/01/01 06:36:49;;;;;;;23.63;9.95;;;5.00;81.60;;;;;;5094863;28;20040;-59
2021/01/01 06:39:37;;;;;;;21.95;8.98;;;5.00;81.50;;;;;;5094470;28;20471;-59
2021/01/01 06:42:03;;;;;;;20.88;10.15;;;5.00;81.60;;;;;;5094078;28;20028;-59
2021/01/01 06:44:34;;;;;;;20.17;9.07;;;5.00;81.60;;;;;;5094410;28;20097;-59
2021/01/01 06:46:59;;;;;;;23.25;10.68;;;4.90;81.60;;;;;;5094736;28;20036;-59
2021/01/01 06:49:39;;;;;;;25.17;11.85;;;4.90;81.60;;;;;;5093880;28;20031;-59
2021/01/01 06:52:15;;;;;;;21.95;9.57;;;4.90;81.70;;;;;;5094511;28;20044;-59
2021/01/01 06:54:59;;;;;;;7.28;4.00;;;5.00;81.70;;;;;;5093734;28;20048;-60
2021/01/01 06:57:29;;;;;;;21.85;9.50;;;5.00;81.60;;;;;;5094377;28;20032;-59
2021/01/01 06:59:56;;;;;;;28.05;9.05;;;4.90;81.50;;;;;;5094143;28;20201;-60
2021/01/01 07:02:29;;;;;;;20.52;9.80;;;5.00;81.60;;;;;;5093454;28;20077;-59
2021/01/01 07:04:56;;;;;;;12.65;7.15;;;4.90;81.50;;;;;;5093973;28;20028;-59
2021/01/01 07:07:44;;;;;;;12.55;5.47;;;5.00;81.50;;;;;;5094044;28;20528;-59
2021/01/01 07:10:33;;;;;;;19.90;9.02;;;4.90;81.40;;;;;;5093366;28;20032;-59
2021/01/01 07:13:15;;;;;;;24.67;11.27;;;4.90;81.40;;;;;;5094172;28;20032;-59
2021/01/01 07:15:41;;;;;;;21.02;6.28;;;4.90;81.40;;;;;;5093654;28;20027;-59
2021/01/01 07:18:07;;;;;;;16.65;9.02;;;4.90;81.40;;;;;;5093175;28;20097;-59
2021/01/01 07:20:38;;;;;;;24.77;11.60;;;4.90;81.50;;;;;;5093528;28;20042;-59
2021/01/01 07:23:04;;;;;;;14.00;6.35;;;4.90;81.50;;;;;;5093176;28;20477;-59
2021/01/01 07:25:37;;;;;;;16.88;8.38;;;4.90;81.50;;;;;;5092676;28;20075;-59
2021/01/01 07:28:07;;;;;;;24.83;8.25;;;4.80;81.50;;;;;;5093884;28;20027;-59
2021/01/01 07:30:35;;;;;;;10.73;5.45;;;4.90;81.50;;;;;;5092743;28;20082;-59
2021/01/01 07:33:01;;;;;;;19.27;8.77;;;4.80;81.50;;;;;;5093638;28;20450;-59
2021/01/01 07:35:28;;;;;;;8.90;5.43;;;4.80;81.40;;;;;;5093675;28;20032;-59
2021/01/01 07:37:54;;;;;;;23.65;10.23;;;4.80;81.50;;;;;;5092559;28;20039;-59
2021/01/01 07:40:20;;;;;;;22.55;10.35;;;4.80;81.50;;;;;;5093745;28;20032;-59
2021/01/01 07:42:50;;;;;;;21.88;9.18;;;4.80;81.50;;;;;;5093384;28;20380;-59
2021/01/01 07:45:18;;;;;;;18.33;8.48;;;4.80;81.60;;;;;;5093011;28;20120;-59
2021/01/01 07:47:47;;;;;;;17.45;8.90;;;4.80;81.60;;;;;;5093476;28;20028;-59
2021/01/01 07:50:17;;;;;;;9.63;5.68;;;4.80;81.60;;;;;;5093226;28;20039;-59
2021/01/01 07:52:43;;;;;;;9.32;5.53;;;4.80;81.50;;;;;;5092636;28;20032;-59
2021/01/01 07:55:09;;;;;;;8.48;4.40;;;4.80;81.50;;;;;;5092737;28;20503;-59
2021/01/01 07:57:37;;;;;;;2.53;2.33;;;4.80;81.50;;;;;;5092656;28;20559;-60
2021/01/01 08:00:06;;;;;;;14.82;6.75;;;4.70;81.50;;;;;;5087521;28;20036;-59
2021/01/01 08:02:38;;;;;;;11.30;6.22;;;4.80;81.60;;;;;;5092621;28;20042;-59
2021/01/01 08:05:04;;;;;;;21.85;9.93;;;4.70;81.50;;;;;;5092133;28;20028;-59
2021/01/01 08:07:30;;;;;;;10.43;6.00;;;4.70;81.50;;;;;;5078406;28;20099;-59
2021/01/01 08:09:56;;;;;;;20.05;10.05;;;4.70;81.40;;;;;;5076427;28;20446;-59
2021/01/01 08:12:22;;;;;;;27.15;11.70;;;4.70;81.50;;;;;;5079092;28;20032;-59
2021/01/01 08:14:49;;;;;;;24.27;10.75;;;4.70;81.50;;;;;;5082855;28;20107;-59
2021/01/01 08:17:19;;;;;;;17.90;8.02;;;4.70;81.50;;;;;;5092685;28;20406;-59
2021/01/01 08:19:44;;;;;;;16.35;7.63;;;4.70;81.50;;;;;;5088316;28;20051;-60
2021/01/01 08:22:13;;;;;;;11.15;5.60;;;4.70;81.50;;;;;;5085442;28;20028;-60
2021/01/01 08:24:42;;;;;;;11.50;6.10;;;4.70;81.60;;;;;;5089032;28;20550;-59
2021/01/01 08:27:08;;;;;;;20.70;8.05;;;4.70;81.60;;;;;;5084780;28;20021;-60
2021/01/01 08:29:36;;;;;;;21.17;9.27;;;4.70;81.50;;;;;;5089296;28;20024;-60
2021/01/01 08:32:03;;;;;;;15.82;8.23;;;4.70;81.50;;;;;;5085689;28;20025;-60
2021/01/01 08:34:29;;;;;;;6.05;3.88;;;4.70;81.50;;;;;;5088067;28;20126;-60
2021/01/01 08:36:54;;;;;;;16.98;7.53;;;4.70;81.50;;;;;;5090343;28;20103;-60
2021/01/01 08:39:24;;;;;;;30.35;9.40;;;4.70;81.50;;;;;;5094455;28;20074;-60
2021/01/01 08:41:50;;;;;;;26.23;9.73;;;4.70;81.50;;;;;;5096158;28;20497;-60
2021/01/01 08:44:19;;;;;;;26.58;11.75;;;4.70;81.50;;;;;;5096959;28;20123;-60
2021/01/01 08:46:56;;;;;;;18.00;8.10;;;4.60;81.50;;;;;;5096548;28;20494;-60
2021/01/01 08:49:22;;;;;;;16.65;7.30;;;4.70;81.60;;;;;;5096076;28;20046;-60
2021/01/01 08:51:49;;;;;;;16.92;8.38;;;4.60;81.50;;;;;;5106516;28;20474;-60
2021/01/01 08:54:25;;;;;;;19.70;8.18;;;4.70;81.60;;;;;;5100610;28;20043;-61
2021/01/01 08:57:00;;;;;;;20.10;9.30;;;4.70;81.60;;;;;;5096628;28;20032;-60
2021/01/01 08:59:27;;;;;;;15.35;7.53;;;4.70;81.60;;;;;;5096529;28;20479;-60
2021/01/01 09:01:53;;;;;;;21.75;9.75;;;4.70;81.60;;;;;;5095582;28;20036;-60
2021/01/01 09:04:23;;;;;;;16.70;6.40;;;4.70;81.60;;;;;;5096260;28;20093;-60
2021/01/01 09:06:57;;;;;;;10.75;6.03;;;4.60;81.60;;;;;;5098486;28;20028;-60
2021/01/01 09:09:27;;;;;;;15.07;6.88;;;4.70;81.60;;;;;;5081601;28;20054;-61
2021/01/01 09:12:14;;;;;;;16.30;7.05;;;4.70;81.70;;;;;;5095456;28;20036;-59
2021/01/01 09:14:54;;;;;;;11.77;6.40;;;4.70;81.70;;;;;;5087859;28;20524;-60
2021/01/01 09:17:24;;;;;;;22.10;8.07;;;4.60;81.70;;;;;;5085067;28;20089;-59
2021/01/01 09:20:05;;;;;;;11.70;5.93;;;4.70;81.70;;;;;;5086501;28;20044;-59
2021/01/01 09:22:36;;;;;;;7.93;3.97;;;4.60;81.70;;;;;;5084236;28;20395;-59
2021/01/01 09:25:22;;;;;;;13.13;6.15;;;4.60;81.70;;;;;;5088442;28;20048;-60
2021/01/01 09:27:49;;;;;;;21.08;7.47;;;4.70;81.80;;;;;;5076572;28;20052;-61
2021/01/01 09:30:19;;;;;;;16.85;6.60;;;4.70;81.80;;;;;;5078284;28;21784;-63
2021/01/01 09:32:46;;;;;;;14.48;6.90;;;4.70;81.80;;;;;;5075644;28;20089;-62
2021/01/01 09:35:13;;;;;;;15.13;7.00;;;4.70;81.80;;;;;;5075171;28;20056;-62
2021/01/01 09:37:47;;;;;;;11.40;5.97;;;4.80;81.90;;;;;;5079873;28;20039;-60
2021/01/01 09:40:14;;;;;;;20.27;8.88;;;4.80;81.90;;;;;;5091906;28;20040;-61
2021/01/01 09:42:39;;;;;;;13.70;5.93;;;4.80;81.90;;;;;;5094121;28;20067;-61
2021/01/01 09:45:06;;;;;;;12.25;4.55;;;4.80;81.80;;;;;;5093282;28;20062;-61
2021/01/01 09:47:31;;;;;;;12.90;5.65;;;4.80;81.90;;;;;;5092817;28;20024;-63
2021/01/01 09:49:57;;;;;;;10.43;4.55;;;4.80;81.80;;;;;;5093954;28;20028;-63
2021/01/01 09:52:22;;;;;;;19.45;7.22;;;4.90;81.80;;;;;;5093355;28;20031;-63
2021/01/01 09:54:48;;;;;;;13.95;7.03;;;4.90;81.80;;;;;;5093743;28;20460;-64
2021/01/01 09:57:14;;;;;;;12.98;5.75;;;4.90;81.80;;;;;;5086690;28;20028;-64
2021/01/01 09:59:39;;;;;;;10.73;5.07;;;5.00;81.80;;;;;;5079134;28;20036;-62
2021/01/01 10:02:06;;;;;;;13.43;5.40;;;5.00;81.70;;;;;;5091374;28;20016;-62
2021/01/01 10:04:31;;;;;;;6.07;3.50;;;5.00;81.60;;;;;;5079745;28;20107;-62
2021/01/01 10:06:57;;;;;;;11.32;4.70;;;5.00;81.60;;;;;;5078897;28;20103;-63
2021/01/01 10:09:22;;;;;;;11.18;4.78;;;5.10;81.60;;;;;;5093556;28;20073;-65
2021/01/01 10:11:49;;;;;;;6.78;4.00;;;5.10;81.60;;;;;;5092865;28;20028;-65
2021/01/01 10:14:15;;;;;;;11.05;4.57;;;5.00;81.50;;;;;;5088967;28;20028;-63
2021/01/01 10:16:41;;;;;;;10.48;5.18;;;5.10;81.60;;;;;;5093365;28;20026;-62
2021/01/01 10:19:06;;;;;;;7.03;4.13;;;5.10;81.60;;;;;;5092128;28;20040;-62
2021/01/01 10:21:32;;;;;;;8.13;4.32;;;5.10;81.50;;;;;;5091933;28;20035;-64
2021/01/01 10:23:58;;;;;;;9.40;3.50;;;5.10;81.60;;;;;;5089194;28;20036;-62
2021/01/01 10:26:23;;;;;;;5.05;2.70;;;5.10;81.60;;;;;;5078238;28;20035;-59
2021/01/01 10:28:49;;;;;;;6.63;3.17;;;5.20;81.70;;;;;;5075241;28;20044;-60
2021/01/01 10:31:21;;;;;;;6.95;2.78;;;5.20;81.60;;;;;;5080698;28;20096;-59
2021/01/01 10:33:47;;;;;;;10.43;4.93;;;5.20;81.60;;;;;;5075303;28;20028;-59
2021/01/01 10:36:12;;;;;;;12.10;5.50;;;5.20;81.80;;;;;;5075639;28;20031;-59
2021/01/01 10:38:38;;;;;;;7.50;4.10;;;5.20;82.10;;;;;;5080516;28;20353;-59
2021/01/01 10:41:04;;;;;;;7.38;4.45;;;5.30;82.10;;;;;;5075599;28;20041;-59
2021/01/01 10:43:29;;;;;;;5.88;2.97;;;5.30;82.00;;;;;;5087885;28;20051;-59
2021/01/01 10:45:55;;;;;;;4.45;2.80;;;5.30;81.90;;;;;;5083891;28;20064;-60
2021/01/01 10:48:21;;;;;;;4.40;2.20;;;5.30;81.80;;;;;;5085113;28;20046;-60
2021/01/01 10:50:47;;;;;;;2.92;1.95;;;5.40;81.80;;;;;;5086108;28;20437;-60
2021/01/01 10:53:13;;;;;;;1.65;1.15;;;5.40;81.80;;;;;;5083847;28;20028;-60
2021/01/01 10:55:41;;;;;;;5.13;2.40;;;5.40;81.90;;;;;;5087131;28;20044;-59
2021/01/01 10:58:08;;;;;;;1.33;1.13;;;5.40;82.10;;;;;;5082065;28;20036;-60
2021/01/01 11:00:33;;;;;;;2.67;2.08;;;5.40;82.30;;;;;;5087584;28;20040;-60
2021/01/01 11:02:59;;;;;;;5.15;1.67;;;5.40;82.50;;;;;;5078080;28;20040;-60
2021/01/01 11:05:25;;;;;;;2.33;1.52;;;5.40;82.70;;;;;;5087289;28;20031;-60
2021/01/01 11:07:50;;;;;;;3.85;2.33;;;5.40;82.90;;;;;;5098909;28;20097;-61
2021/01/01 11:10:16;;;;;;;2.15;1.58;;;5.40;83.00;;;;;;5099326;28;20410;-61
2021/01/01 11:12:42;;;;;;;4.18;2.25;;;5.40;83.10;;;;;;5101075;28;20019;-61
2021/01/01 12:19:36;;;;;;;1.88;1.52;;;5.40;83.20;;;;;;5087114;28;20025;-60
2021/01/01 12:22:11;;;;;;;3.53;1.85;;;6.30;83.90;;;;;;5069227;28;20038;-63
2021/01/01 12:24:57;;;;;;;5.93;1.70;;;6.40;84.10;;;;;;5089614;28;20028;-63
2021/01/01 12:27:29;;;;;;;1.15;1.05;;;6.40;84.20;;;;;;5088010;28;20089;-66
2021/01/01 12:29:56;;;;;;;0.77;0.77;;;6.40;84.30;;;;;;5089304;28;20408;-61
2021/01/01 12:32:23;;;;;;;6.90;2.50;;;6.40;84.30;;;;;;5084795;28;20021;-61
2021/01/01 12:34:49;;;;;;;2.60;1.52;;;6.40;84.50;;;;;;5089519;28;20020;-63
2021/01/01 12:37:15;;;;;;;2.33;1.15;;;6.50;84.60;;;;;;5085664;28;20144;-61
2021/01/01 12:39:41;;;;;;;0.63;0.63;;;6.50;84.40;;;;;;5081910;28;20047;-61
2021/01/01 12:42:07;;;;;;;3.55;1.95;;;6.60;84.40;;;;;;5076484;28;20020;-61
2021/01/01 12:44:33;;;;;;;10.45;2.00;;;6.70;84.60;;;;;;5072239;28;20028;-61
2021/01/01 12:47:02;;;;;;;0.70;0.70;;;6.60;84.60;;;;;;5075712;28;20374;-61
2021/01/01 12:49:28;;;;;;;0.85;0.82;;;6.60;84.70;;;;;;5074168;28;20029;-61
2021/01/01 12:51:54;;;;;;;0.82;0.77;;;6.70;84.90;;;;;;5078720;28;20040;-61
2021/01/01 12:54:20;;;;;;;2.17;1.15;;;6.70;85.20;;;;;;5090040;28;20028;-61
2021/01/01 12:56:45;;;;;;;1.05;1.02;;;6.70;85.60;;;;;;5088253;28;20047;-63
2021/01/01 12:59:11;;;;;;;0.63;0.63;;;6.70;85.70;;;;;;5090538;28;20064;-62
2021/01/01 13:01:37;;;;;;;1.02;0.93;;;6.80;86.00;;;;;;5076801;28;20048;-61
2021/01/01 13:04:03;;;;;;;0.65;0.65;;;6.80;86.30;;;;;;5073999;28;20081;-60
2021/01/01 13:06:29;;;;;;;1.40;1.20;;;6.80;86.50;;;;;;5075858;28;20467;-60
2021/01/01 13:08:57;;;;;;;0.50;0.50;;;6.90;86.90;;;;;;5079497;28;20067;-59
2021/01/01 13:11:25;;;;;;;2.15;1.20;;;6.90;87.10;;;;;;5072100;28;20101;-61
2021/01/01 13:13:51;;;;;;;2.30;1.45;;;6.90;87.20;;;;;;5076742;28;20209;-59
2021/01/01 13:16:26;;;;;;;1.17;1.00;;;7.00;87.60;;;;;;5071383;28;20111;-59
2021/01/01 13:18:53;;;;;;;0.75;0.70;;;7.00;87.70;;;;;;5072863;28;20476;-60
2021/01/01 13:21:27;;;;;;;0.65;0.65;;;7.00;87.90;;;;;;5074740;28;20089;-62
2021/01/01 13:23:52;;;;;;;7.53;1.02;;;7.10;88.00;;;;;;5087036;28;20469;-61
2021/01/01 13:26:20;;;;;;;2.47;1.17;;;7.10;88.00;;;;;;5088526;28;20032;-61
2021/01/01 13:28:45;;;;;;;3.75;1.02;;;7.10;88.10;;;;;;5085439;28;20032;-61
2021/01/01 13:31:11;;;;;;;2.08;1.23;;;7.20;88.20;;;;;;5090572;28;20034;-61
2021/01/01 13:33:37;;;;;;;1.17;1.08;;;7.20;88.30;;;;;;5083792;28;20024;-62
2021/01/01 13:36:05;;;;;;;3.13;1.23;;;7.30;88.40;;;;;;5077494;28;20394;-60
2021/01/01 13:38:31;;;;;;;1.48;1.27;;;7.30;88.60;;;;;;5077850;28;20028;-60
2021/01/01 13:40:56;;;;;;;0.50;0.50;;;7.30;88.70;;;;;;5077872;28;20032;-61
2021/01/01 13:43:22;;;;;;;0.85;0.85;;;7.30;88.80;;;;;;5079496;28;20024;-60
2021/01/01 13:45:48;;;;;;;2.40;1.05;;;7.40;89.00;;;;;;5077849;28;20115;-59
2021/01/01 13:48:13;;;;;;;0.88;0.80;;;7.40;89.00;;;;;;5080885;28;20040;-60
2021/01/01 13:50:39;;;;;;;2.60;1.33;;;7.40;89.00;;;;;;5078356;28;20046;-60
2021/01/01 13:53:04;;;;;;;2.00;0.90;;;7.50;89.10;;;;;;5081234;28;20027;-59
2021/01/01 13:55:30;;;;;;;1.10;1.00;;;7.50;89.20;;;;;;5081735;28;20131;-60